createdAt,value
2018-12-30T00:02:26.464Z,28.10
2018-12-30T00:04:57.719Z,28.40
2018-12-30T00:07:27.568Z,28.27
2018-12-30T00:09:57.205Z,28.57
2018-12-30T00:12:27.061Z,26.90
2018-12-30T00:14:57.731Z,26.45
2018-12-30T00:17:27.551Z,27.87
2018-12-30T00:19:57.550Z,26.05
2018-12-30T00:22:27.126Z,26.50
2018-12-30T00:24:56.823Z,27.58
2018-12-30T00:27:26.640Z,23.98
2018-12-30T00:29:56.267Z,25.32
2018-12-30T00:32:26.225Z,24.92
2018-12-30T00:34:56.486Z,22.52
2018-12-30T00:37:26.053Z,21.75
2018-12-30T00:40:14.720Z,20.77
2018-12-30T00:43:03.571Z,20.40
2018-12-30T00:45:33.278Z,19.77
2018-12-30T00:48:03.154Z,20.68
2018-12-30T00:50:32.946Z,20.55
2018-12-30T00:53:03.077Z,19.75
2018-12-30T00:56:12.100Z,19.80
2018-12-30T00:58:41.795Z,19.27
2018-12-30T01:01:30.341Z,18.82
2018-12-30T01:04:00.315Z,18.55
2018-12-30T01:06:32.301Z,19.65
2018-12-30T01:09:20.912Z,20.70
2018-12-30T01:12:11.625Z,17.37
2018-12-30T01:15:00.230Z,17.87
2018-12-30T01:17:48.766Z,18.77
2018-12-30T01:20:18.911Z,17.27
2018-12-30T01:22:48.490Z,17.27
2018-12-30T01:25:18.251Z,16.77
2018-12-30T01:27:47.918Z,16.93
2018-12-30T01:30:29.531Z,17.10
2018-12-30T01:33:10.276Z,15.77
2018-12-30T01:35:40.010Z,17.45
2018-12-30T01:38:09.561Z,16.17
2018-12-30T01:40:39.498Z,17.10
2018-12-30T01:43:09.924Z,17.70
2018-12-30T01:45:40.008Z,16.67
2018-12-30T01:48:28.642Z,16.57
2018-12-30T01:50:58.342Z,16.30
2018-12-30T01:53:29.781Z,15.57
2018-12-30T01:55:59.502Z,15.57
2018-12-30T01:59:08.708Z,15.70
2018-12-30T02:01:57.294Z,15.03
2018-12-30T02:04:46.047Z,15.53
2018-12-30T02:07:15.975Z,17.05
2018-12-30T02:09:45.568Z,16.80
2018-12-30T02:12:15.260Z,16.17
2018-12-30T02:14:44.947Z,15.03
2018-12-30T02:17:14.697Z,15.87
2018-12-30T02:19:44.398Z,16.13
2018-12-30T02:22:14.024Z,16.63
2018-12-30T02:24:43.751Z,15.07
2018-12-30T02:27:13.604Z,16.50
2018-12-30T02:29:43.281Z,17.00
2018-12-30T02:32:13.039Z,16.13
2018-12-30T02:34:42.768Z,17.20
2018-12-30T02:37:31.694Z,15.77
2018-12-30T02:40:20.348Z,16.43
2018-12-30T02:43:10.641Z,17.03
2018-12-30T02:45:40.467Z,16.90
2018-12-30T02:48:11.199Z,15.90
2018-12-30T02:50:41.034Z,16.13
2018-12-30T02:53:11.406Z,14.63
2018-12-30T02:55:40.975Z,14.80
2018-12-30T02:58:11.398Z,15.73
2018-12-30T03:01:00.051Z,14.27
2018-12-30T03:03:31.182Z,13.40
2018-12-30T03:06:19.977Z,14.23
2018-12-30T03:09:21.753Z,14.60
2018-12-30T03:11:51.426Z,14.00
2018-12-30T03:14:21.339Z,13.23
2018-12-30T03:16:51.437Z,14.43
2018-12-30T03:19:21.206Z,16.13
2018-12-30T03:21:58.962Z,14.10
2018-12-30T03:24:22.579Z,14.30
2018-12-30T03:26:52.444Z,15.10
2018-12-30T03:29:22.248Z,14.70
2018-12-30T03:31:51.993Z,15.80
2018-12-30T03:34:21.679Z,15.33
2018-12-30T03:37:10.533Z,16.20
2018-12-30T03:39:40.199Z,14.67
2018-12-30T03:42:09.995Z,15.87
2018-12-30T03:44:40.621Z,15.83
2018-12-30T03:47:10.244Z,15.53
2018-12-30T03:49:39.988Z,16.13
2018-12-30T03:52:09.776Z,16.07
2018-12-30T03:54:40.442Z,16.60
2018-12-30T03:57:12.177Z,16.73
2018-12-30T03:59:41.987Z,16.30
2018-12-30T04:02:11.671Z,18.27
2018-12-30T04:04:41.475Z,17.27
2018-12-30T04:07:30.059Z,18.53
2018-12-30T04:09:59.764Z,17.93
2018-12-30T04:12:29.467Z,17.53
2018-12-30T04:14:59.189Z,17.63
2018-12-30T04:17:48.084Z,17.70
2018-12-30T04:20:17.832Z,18.30
2018-12-30T04:22:48.322Z,18.13
2018-12-30T04:25:18.043Z,18.43
2018-12-30T04:27:53.526Z,19.43
2018-12-30T04:30:35.190Z,18.90
2018-12-30T04:33:15.852Z,18.03
2018-12-30T04:35:56.886Z,18.57
2018-12-30T04:38:38.605Z,18.00
2018-12-30T04:41:19.943Z,18.53
2018-12-30T04:43:49.541Z,19.50
2018-12-30T04:46:19.242Z,18.93
2018-12-30T04:48:49.197Z,18.57
2018-12-30T04:51:18.993Z,20.57
2018-12-30T04:53:48.694Z,19.70
2018-12-30T04:56:18.444Z,18.53
2018-12-30T04:58:48.018Z,19.77
2018-12-30T05:01:17.776Z,20.70
2018-12-30T05:03:47.376Z,20.40
2018-12-30T05:06:17.279Z,19.47
2018-12-30T05:08:49.053Z,19.40
2018-12-30T05:11:37.725Z,19.50
2018-12-30T05:14:07.271Z,17.73
2018-12-30T05:16:36.931Z,19.07
2018-12-30T05:19:06.795Z,19.40
2018-12-30T05:21:37.656Z,19.43
2018-12-30T05:24:26.286Z,20.67
2018-12-30T05:26:56.010Z,21.20
2018-12-30T05:29:44.587Z,20.30
2018-12-30T05:32:14.674Z,19.47
2018-12-30T05:34:44.417Z,20.03
2018-12-30T05:37:32.995Z,20.27
2018-12-30T05:40:02.734Z,22.03
2018-12-30T05:42:32.428Z,20.10
2018-12-30T05:45:02.130Z,21.80
2018-12-30T05:47:31.817Z,21.10
2018-12-30T05:50:01.494Z,23.23
2018-12-30T05:52:31.178Z,21.27
2018-12-30T05:55:01.121Z,22.00
2018-12-30T05:57:30.712Z,21.90
2018-12-30T06:00:00.360Z,20.17
2018-12-30T06:02:30.064Z,21.80
2018-12-30T06:04:59.651Z,21.47
2018-12-30T06:07:29.273Z,20.07
2018-12-30T06:09:58.822Z,22.27
2018-12-30T06:12:28.530Z,21.50
2018-12-30T06:14:58.246Z,20.47
2018-12-30T06:17:27.968Z,20.43
2018-12-30T06:19:57.616Z,20.33
2018-12-30T06:22:27.403Z,19.83
2018-12-30T06:24:57.298Z,19.63
2018-12-30T06:27:26.937Z,20.00
2018-12-30T06:29:56.764Z,21.00
2018-12-30T06:32:26.896Z,19.20
2018-12-30T06:34:56.653Z,20.27
2018-12-30T06:37:26.619Z,19.70
2018-12-30T06:39:56.527Z,19.33
2018-12-30T06:42:26.348Z,21.93
2018-12-30T06:44:56.268Z,19.10
2018-12-30T06:47:25.975Z,20.07
2018-12-30T06:49:55.659Z,17.30
2018-12-30T06:52:25.444Z,19.50
2018-12-30T06:54:55.291Z,19.20
2018-12-30T06:57:25.017Z,18.17
2018-12-30T06:59:54.687Z,17.33
2018-12-30T07:02:25.367Z,16.77
2018-12-30T07:04:55.074Z,16.87
2018-12-30T07:07:24.716Z,17.73
2018-12-30T07:09:54.528Z,17.43
2018-12-30T07:12:25.312Z,17.40
2018-12-30T07:14:54.995Z,18.17
2018-12-30T07:17:24.801Z,17.80
2018-12-30T07:19:54.483Z,17.00
2018-12-30T07:22:25.134Z,14.90
2018-12-30T07:24:54.995Z,15.43
2018-12-30T07:27:24.664Z,16.10
2018-12-30T07:29:54.422Z,16.53
2018-12-30T07:32:24.118Z,16.17
2018-12-30T07:34:53.799Z,15.60
2018-12-30T07:37:23.374Z,16.37
2018-12-30T07:39:52.943Z,14.73
2018-12-30T07:42:22.625Z,15.40
2018-12-30T07:44:52.252Z,14.33
2018-12-30T07:47:22.000Z,16.53
2018-12-30T07:49:51.567Z,14.63
2018-12-30T07:52:21.227Z,15.20
2018-12-30T07:54:50.765Z,15.60
2018-12-30T07:57:20.509Z,15.40
2018-12-30T07:59:50.075Z,17.83
2018-12-30T08:02:19.923Z,16.83
2018-12-30T08:04:49.602Z,16.47
2018-12-30T08:07:19.384Z,17.47
2018-12-30T08:09:49.069Z,16.23
2018-12-30T08:12:18.700Z,18.20
2018-12-30T08:14:48.350Z,15.37
2018-12-30T08:17:17.944Z,17.63
2018-12-30T08:19:47.698Z,16.53
2018-12-30T08:22:17.375Z,18.00
2018-12-30T08:24:47.074Z,19.20
2018-12-30T08:29:53.378Z,18.67
2018-12-30T08:32:23.091Z,17.80
2018-12-30T08:34:52.813Z,17.87
2018-12-30T08:37:22.511Z,16.20
2018-12-30T08:39:52.066Z,18.20
2018-12-30T08:42:21.678Z,15.30
2018-12-30T08:45:10.537Z,16.27
2018-12-30T08:47:40.345Z,19.10
2018-12-30T08:50:10.111Z,18.57
2018-12-30T08:52:39.829Z,17.60
2018-12-30T08:55:09.362Z,17.30
2018-12-30T08:57:38.995Z,17.73
2018-12-30T09:00:08.851Z,17.10
2018-12-30T09:02:38.453Z,16.63
2018-12-30T09:05:08.129Z,16.57
2018-12-30T09:07:37.723Z,16.93
2018-12-30T09:10:07.860Z,16.60
2018-12-30T09:12:37.550Z,15.93
2018-12-30T09:15:07.479Z,16.00
2018-12-30T09:17:37.223Z,16.70
2018-12-30T09:20:07.286Z,17.17
2018-12-30T09:22:36.852Z,16.10
2018-12-30T09:25:06.675Z,15.27
2018-12-30T09:27:36.414Z,15.80
2018-12-30T09:30:06.723Z,15.83
2018-12-30T09:32:36.553Z,16.03
2018-12-30T09:35:25.112Z,16.90
2018-12-30T09:37:54.747Z,14.30
2018-12-30T09:40:24.486Z,14.70
2018-12-30T09:42:54.169Z,15.47
2018-12-30T09:45:23.704Z,15.57
2018-12-30T09:47:53.513Z,16.07
2018-12-30T09:50:23.257Z,15.97
2018-12-30T09:52:52.822Z,14.60
2018-12-30T09:55:25.604Z,14.20
2018-12-30T09:57:55.132Z,15.33
2018-12-30T10:00:24.867Z,13.77
2018-12-30T10:02:54.522Z,16.60
2018-12-30T10:05:24.220Z,16.73
2018-12-30T10:07:53.954Z,15.00
2018-12-30T10:10:23.515Z,15.00
2018-12-30T10:12:53.260Z,15.50
2018-12-30T10:15:22.995Z,15.10
2018-12-30T10:17:52.564Z,15.20
2018-12-30T10:20:22.366Z,14.43
2018-12-30T10:22:58.796Z,15.37
2018-12-30T10:25:23.886Z,14.37
2018-12-30T10:28:12.491Z,16.60
2018-12-30T10:30:42.272Z,15.60
2018-12-30T10:33:12.749Z,16.83
2018-12-30T10:35:42.476Z,13.30
2018-12-30T10:38:12.435Z,14.10
2018-12-30T10:40:46.513Z,15.77
2018-12-30T10:43:16.207Z,16.23
2018-12-30T10:45:46.308Z,16.03
2018-12-30T10:48:17.767Z,18.93
2018-12-30T10:50:47.493Z,16.50
2018-12-30T10:53:17.717Z,17.60
2018-12-30T10:55:47.386Z,14.90
2018-12-30T10:58:17.755Z,14.53
2018-12-30T11:00:47.569Z,14.00
2018-12-30T11:03:17.983Z,15.53
2018-12-30T11:05:47.698Z,13.57
2018-12-30T11:08:17.488Z,13.57
2018-12-30T11:10:47.282Z,12.83
2018-12-30T11:13:17.732Z,14.37
2018-12-30T11:15:47.523Z,13.20
2018-12-30T11:18:17.581Z,12.80
2018-12-30T11:20:47.335Z,12.87
2018-12-30T11:23:17.875Z,13.33
2018-12-30T11:25:47.500Z,12.73
2018-12-30T11:28:17.356Z,11.80
2018-12-30T11:30:47.140Z,12.13
2018-12-30T11:33:16.906Z,13.90
2018-12-30T11:35:46.534Z,13.20
2018-12-30T11:38:17.004Z,14.53
2018-12-30T11:40:46.810Z,12.90
2018-12-30T11:43:16.767Z,12.83
2018-12-30T11:45:46.707Z,13.17
2018-12-30T11:48:17.246Z,12.70
2018-12-30T11:50:48.307Z,13.10
2018-12-30T11:53:18.126Z,13.20
2018-12-30T11:55:47.839Z,12.20
2018-12-30T11:58:18.097Z,12.10
2018-12-30T12:00:47.985Z,12.43
2018-12-30T12:03:18.426Z,12.43
2018-12-30T12:05:48.192Z,12.67
2018-12-30T12:08:19.215Z,12.60
2018-12-30T12:10:48.911Z,12.17
2018-12-30T12:13:39.198Z,12.20
2018-12-30T12:16:27.810Z,14.23
2018-12-30T12:18:58.178Z,11.60
2018-12-30T12:21:27.903Z,13.00
2018-12-30T12:23:58.885Z,12.70
2018-12-30T12:26:31.500Z,13.03
2018-12-30T12:29:01.185Z,12.10
2018-12-30T12:31:30.842Z,10.90
2018-12-30T12:34:01.068Z,11.10
2018-12-30T12:36:30.953Z,11.40
2018-12-30T12:39:00.601Z,11.00
2018-12-30T12:41:31.035Z,13.23
2018-12-30T12:44:00.769Z,11.63
2018-12-30T12:46:32.439Z,11.60
2018-12-30T12:49:02.338Z,12.17
2018-12-30T12:51:32.145Z,11.27
2018-12-30T12:54:01.931Z,12.07
2018-12-30T12:56:31.799Z,10.93
2018-12-30T12:59:02.219Z,12.53
2018-12-30T13:01:32.047Z,12.00
2018-12-30T13:04:24.860Z,10.60
2018-12-30T13:06:54.562Z,10.93
2018-12-30T13:09:24.535Z,11.70
2018-12-30T13:11:54.444Z,11.07
2018-12-30T13:14:24.279Z,10.43
2018-12-30T13:16:54.335Z,10.70
2018-12-30T13:19:24.249Z,10.10
2018-12-30T13:21:55.092Z,11.27
2018-12-30T13:24:59.103Z,11.33
2018-12-30T13:27:28.803Z,10.07
2018-12-30T13:29:58.760Z,15.07
2018-12-30T13:32:28.566Z,10.30
2018-12-30T13:34:58.303Z,10.50
2018-12-30T13:37:29.742Z,10.00
2018-12-30T13:39:59.499Z,9.90
2018-12-30T13:42:29.537Z,10.10
2018-12-30T13:44:59.369Z,9.57
2018-12-30T13:47:29.034Z,9.40
2018-12-30T13:49:58.840Z,10.17
2018-12-30T13:52:47.448Z,10.40
2018-12-30T13:55:17.937Z,9.00
2018-12-30T13:57:47.591Z,9.87
2018-12-30T14:00:17.478Z,9.10
2018-12-30T14:03:06.432Z,9.50
2018-12-30T14:05:36.245Z,9.27
2018-12-30T14:08:07.738Z,9.80
2018-12-30T14:10:38.361Z,10.93
2018-12-30T14:13:09.873Z,9.43
2018-12-30T14:15:39.689Z,9.10
2018-12-30T14:18:11.450Z,9.50
2018-12-30T14:20:41.267Z,10.13
2018-12-30T14:23:13.634Z,11.17
2018-12-30T14:25:43.683Z,11.40
2018-12-30T14:28:14.174Z,10.40
2018-12-30T14:30:43.738Z,10.67
2018-12-30T14:33:13.587Z,10.67
2018-12-30T14:35:43.237Z,11.90
2018-12-30T14:38:13.621Z,9.90
2018-12-30T14:40:44.121Z,10.83
2018-12-30T14:43:13.920Z,10.10
2018-12-30T14:45:43.588Z,10.03
2018-12-30T14:48:14.048Z,10.40
2018-12-30T14:50:43.752Z,10.27
2018-12-30T14:53:19.099Z,10.17
2018-12-30T14:55:45.737Z,9.80
2018-12-30T14:58:15.671Z,10.70
2018-12-30T15:00:45.666Z,10.83
2018-12-30T15:03:15.323Z,9.33
2018-12-30T15:05:45.256Z,10.50
2018-12-30T15:08:15.723Z,10.40
2018-12-30T15:10:45.482Z,9.97
2018-12-30T15:13:15.266Z,9.83
2018-12-30T15:15:46.015Z,9.80
2018-12-30T15:18:16.371Z,10.00
2018-12-30T15:20:46.410Z,9.50
2018-12-30T15:23:35.019Z,10.13
2018-12-30T15:26:05.194Z,8.87
2018-12-30T15:28:34.913Z,9.13
2018-12-30T15:31:04.503Z,9.90
2018-12-30T15:33:35.370Z,9.47
2018-12-30T15:36:17.512Z,9.73
2018-12-30T15:38:47.989Z,10.47
2018-12-30T15:41:17.851Z,9.37
2018-12-30T15:43:47.591Z,9.20
2018-12-30T15:46:17.382Z,9.83
2018-12-30T15:48:47.090Z,7.90
2018-12-30T15:51:17.402Z,9.50
2018-12-30T15:53:49.657Z,8.70
2018-12-30T15:56:38.216Z,9.37
2018-12-30T15:59:08.382Z,8.93
2018-12-30T16:01:38.156Z,8.87
2018-12-30T16:04:07.973Z,9.80
2018-12-30T16:06:37.715Z,10.73
2018-12-30T16:09:26.360Z,9.73
2018-12-30T16:11:57.063Z,9.77
2018-12-30T16:14:26.995Z,11.03
2018-12-30T16:16:56.671Z,10.60
2018-12-30T16:19:26.655Z,9.10
2018-12-30T16:21:56.615Z,10.50
2018-12-30T16:24:26.538Z,10.47
2018-12-30T16:26:56.294Z,11.20
2018-12-30T16:29:25.865Z,11.23
2018-12-30T16:31:55.574Z,10.30
2018-12-30T16:34:25.587Z,10.83
2018-12-30T16:36:55.390Z,10.40
2018-12-30T16:39:25.079Z,10.00
2018-12-30T16:41:54.819Z,10.57
2018-12-30T16:44:24.895Z,9.77
2018-12-30T16:46:54.654Z,9.93
2018-12-30T16:49:24.414Z,10.10
2018-12-30T16:51:54.072Z,9.97
2018-12-30T16:54:25.050Z,11.50
2018-12-30T16:56:54.823Z,11.00
2018-12-30T16:59:24.609Z,10.27
2018-12-30T17:01:54.496Z,11.23
2018-12-30T17:04:24.398Z,11.57
2018-12-30T17:06:54.135Z,10.90
2018-12-30T17:09:24.269Z,10.73
2018-12-30T17:11:54.174Z,11.10
2018-12-30T17:14:23.924Z,11.57
2018-12-30T17:16:53.891Z,11.30
2018-12-30T17:19:23.614Z,10.90
2018-12-30T17:21:53.464Z,11.50
2018-12-30T17:24:23.429Z,10.80
2018-12-30T17:26:53.181Z,12.30
2018-12-30T17:29:23.132Z,11.00
2018-12-30T17:31:53.072Z,11.83
2018-12-30T17:34:22.850Z,12.10
2018-12-30T17:36:54.411Z,11.57
2018-12-30T17:39:24.082Z,12.03
2018-12-30T17:41:53.707Z,10.90
2018-12-30T17:44:23.443Z,10.63
2018-12-30T17:46:53.077Z,11.37
2018-12-30T17:49:22.717Z,11.10
2018-12-30T17:51:52.390Z,11.83
2018-12-30T17:54:22.147Z,13.10
2018-12-30T17:56:51.817Z,12.67
2018-12-30T17:59:21.775Z,10.70
2018-12-30T18:01:51.525Z,12.07
2018-12-30T18:04:21.529Z,11.50
2018-12-30T18:06:51.316Z,11.60
2018-12-30T18:09:21.410Z,11.77
2018-12-30T18:11:51.297Z,10.80
2018-12-30T18:14:21.289Z,12.33
2018-12-30T18:16:51.537Z,11.43
2018-12-30T18:19:21.194Z,13.13
2018-12-30T18:21:50.806Z,13.50
2018-12-30T18:24:21.286Z,14.17
2018-12-30T18:26:51.173Z,13.23
2018-12-30T18:29:21.817Z,12.40
2018-12-30T18:31:51.623Z,12.57
2018-12-30T18:34:21.288Z,12.23
2018-12-30T18:36:51.233Z,11.70
2018-12-30T18:39:21.283Z,12.87
2018-12-30T18:41:51.585Z,14.20
2018-12-30T18:44:21.417Z,12.70
2018-12-30T18:46:51.000Z,13.13
2018-12-30T18:49:39.804Z,13.20
2018-12-30T18:52:09.641Z,12.33
2018-12-30T18:54:58.180Z,11.77
2018-12-30T18:57:28.916Z,11.80
2018-12-30T18:59:58.609Z,12.33
2018-12-30T19:02:28.657Z,12.80
2018-12-30T19:05:17.234Z,12.40
2018-12-30T19:08:07.012Z,13.23
2018-12-30T19:10:36.642Z,12.53
2018-12-30T19:13:08.748Z,12.30
2018-12-30T19:15:38.431Z,12.30
2018-12-30T19:18:10.324Z,12.47
2018-12-30T19:20:39.908Z,12.70
2018-12-30T19:23:10.825Z,12.90
2018-12-30T19:25:40.787Z,12.20
2018-12-30T19:28:10.610Z,13.23
2018-12-30T19:30:40.470Z,12.33
2018-12-30T19:33:11.351Z,11.93
2018-12-30T19:35:41.188Z,10.93
2018-12-30T19:38:11.995Z,13.10
2018-12-30T19:40:41.767Z,12.63
2018-12-30T19:43:15.171Z,10.97
2018-12-30T19:45:44.922Z,11.90
2018-12-30T19:48:14.662Z,12.50
2018-12-30T19:51:03.543Z,11.50
2018-12-30T19:53:33.293Z,11.60
2018-12-30T19:56:03.010Z,11.03
2018-12-30T19:58:33.189Z,11.73
2018-12-30T20:01:02.915Z,12.50
2018-12-30T20:03:32.651Z,12.00
2018-12-30T20:06:02.351Z,11.63
2018-12-30T20:08:32.830Z,12.70
2018-12-30T20:11:02.637Z,14.20
2018-12-30T20:13:32.574Z,12.10
2018-12-30T20:16:02.329Z,13.50
2018-12-30T20:18:32.191Z,12.50
2018-12-30T20:21:02.169Z,12.63
2018-12-30T20:23:32.016Z,13.03
2018-12-30T20:26:01.700Z,13.37
2018-12-30T20:28:31.601Z,13.00
2018-12-30T20:31:39.203Z,13.50
2018-12-30T20:34:08.951Z,12.00
2018-12-30T20:36:38.724Z,12.10
2018-12-30T20:39:09.126Z,13.17
2018-12-30T20:41:38.951Z,12.87
2018-12-30T20:44:08.711Z,13.20
2018-12-30T20:46:38.352Z,11.50
2018-12-30T20:49:08.095Z,11.33
2018-12-30T20:51:39.043Z,11.17
2018-12-30T20:54:08.744Z,12.20
2018-12-30T20:56:38.731Z,12.00
2018-12-30T20:59:08.465Z,11.30
2018-12-30T21:01:38.308Z,12.07
2018-12-30T21:04:07.923Z,12.27
2018-12-30T21:06:37.676Z,11.57
2018-12-30T21:09:26.317Z,10.90
2018-12-30T21:11:56.027Z,12.30
2018-12-30T21:14:26.545Z,11.33
2018-12-30T21:17:23.811Z,11.37
2018-12-30T21:20:12.427Z,11.30
2018-12-30T21:22:42.211Z,11.70
2018-12-30T21:25:12.283Z,11.90
2018-12-30T21:27:42.145Z,11.27
2018-12-30T21:30:12.229Z,11.47
2018-12-30T21:32:43.018Z,10.67
2018-12-30T21:35:12.708Z,10.13
2018-12-30T21:37:42.521Z,10.67
2018-12-30T21:40:12.225Z,10.40
2018-12-30T21:42:43.925Z,10.33
2018-12-30T21:45:13.347Z,10.20
2018-12-30T21:47:43.088Z,10.73
2018-12-30T21:50:13.838Z,10.40
2018-12-30T21:52:44.555Z,10.33
2018-12-30T21:55:14.467Z,12.07
2018-12-30T21:57:44.071Z,10.37
2018-12-30T22:00:13.791Z,11.30
2018-12-30T22:02:43.711Z,9.90
2018-12-30T22:05:13.376Z,10.50
2018-12-30T22:07:44.159Z,10.87
2018-12-30T22:10:17.369Z,9.87
2018-12-30T22:12:45.034Z,9.57
2018-12-30T22:15:14.711Z,10.37
2018-12-30T22:17:44.412Z,9.83
2018-12-30T22:20:14.092Z,9.90
2018-12-30T22:22:44.023Z,10.00
2018-12-30T22:25:13.664Z,10.87
2018-12-30T22:27:43.356Z,11.10
2018-12-30T22:30:13.102Z,12.33
2018-12-30T22:32:42.915Z,11.83
2018-12-30T22:35:16.395Z,11.77
2018-12-30T22:37:47.206Z,11.37
2018-12-30T22:40:18.960Z,10.77
2018-12-30T22:42:48.648Z,10.20
2018-12-30T22:45:18.537Z,11.27
2018-12-30T22:47:48.927Z,11.63
2018-12-30T22:50:18.651Z,10.97
2018-12-30T22:52:48.953Z,10.50
2018-12-30T22:55:18.792Z,11.20
2018-12-30T22:57:48.476Z,11.07
2018-12-30T23:00:55.948Z,10.63
2018-12-30T23:03:28.521Z,10.23
2018-12-30T23:05:58.782Z,12.13
2018-12-30T23:08:28.528Z,11.53
2018-12-30T23:10:59.083Z,11.70
2018-12-30T23:13:28.932Z,12.27
2018-12-30T23:16:17.554Z,11.40
2018-12-30T23:18:47.265Z,12.30
2018-12-30T23:21:35.820Z,12.00
2018-12-30T23:24:05.535Z,11.73
2018-12-30T23:26:36.260Z,11.87
2018-12-30T23:29:24.939Z,11.70
2018-12-30T23:31:54.587Z,12.50
2018-12-30T23:34:24.544Z,11.07
2018-12-30T23:36:54.169Z,12.43
2018-12-30T23:39:23.816Z,12.57
2018-12-30T23:41:53.471Z,12.13
2018-12-30T23:44:23.809Z,12.17
2018-12-30T23:46:54.687Z,12.50
2018-12-30T23:49:26.120Z,12.70
2018-12-30T23:51:56.080Z,11.43
2018-12-30T23:54:25.565Z,12.00
2018-12-30T23:56:55.342Z,12.57
2018-12-30T23:59:24.985Z,11.10
